createdAt,value
2017-06-11T00:00:55.713Z,83.8
2017-06-11T00:02:03.019Z,85
2017-06-11T00:03:10.501Z,85.8
2017-06-11T00:04:18.008Z,84.7
2017-06-11T00:05:25.503Z,86.3
2017-06-11T00:06:32.984Z,85.2
2017-06-11T00:07:40.676Z,85.4
2017-06-11T00:08:48.156Z,86.4
2017-06-11T00:09:55.641Z,84.7
2017-06-11T00:11:03.126Z,86.8
2017-06-11T00:12:10.609Z,86.8
2017-06-11T00:13:18.390Z,86.6
2017-06-11T00:14:25.876Z,86.7
2017-06-11T00:15:33.358Z,86.9
2017-06-11T00:16:40.850Z,85.5
2017-06-11T00:17:48.002Z,85.9
2017-06-11T00:18:55.452Z,86.5
2017-06-11T00:20:02.605Z,88.2
2017-06-11T00:21:10.093Z,85.7
2017-06-11T00:22:17.576Z,87
2017-06-11T00:23:25.054Z,86.9
2017-06-11T00:24:32.835Z,87.7
2017-06-11T00:25:40.314Z,88.4
2017-06-11T00:26:47.799Z,87.9
2017-06-11T00:27:55.285Z,87.9
2017-06-11T00:29:02.772Z,85.4
2017-06-11T00:30:10.554Z,87.1
2017-06-11T00:31:18.040Z,87.6
2017-06-11T00:32:25.520Z,87.5
2017-06-11T00:33:33.000Z,88.6
2017-06-11T00:34:40.486Z,88.6
2017-06-11T00:35:47.944Z,87.6
2017-06-11T00:36:55.423Z,89.3
2017-06-11T00:38:02.906Z,87.1
2017-06-11T00:39:10.386Z,88.1
2017-06-11T00:40:17.888Z,88.1
2017-06-11T00:41:25.674Z,87.2
2017-06-11T00:42:33.158Z,86
2017-06-11T00:43:40.642Z,87.5
2017-06-11T00:44:48.120Z,85.1
2017-06-11T00:45:55.604Z,87.1
2017-06-11T00:47:03.384Z,86.6
2017-06-11T00:48:10.875Z,86.5
2017-06-11T00:49:18.353Z,89
2017-06-11T00:50:25.837Z,88.3
2017-06-11T00:51:33.323Z,88
2017-06-11T00:52:41.108Z,89
2017-06-11T00:53:48.595Z,89.2
2017-06-11T00:54:56.079Z,88.9
2017-06-11T00:56:03.566Z,89.7
2017-06-11T00:57:11.046Z,88.8
2017-06-11T00:58:18.496Z,89
2017-06-11T00:59:25.979Z,88.5
2017-06-11T01:00:33.463Z,85.5
2017-06-11T01:01:40.941Z,88.5
2017-06-11T01:02:48.103Z,89.5
2017-06-11T01:03:55.887Z,90.1
2017-06-11T01:05:03.378Z,90.2
2017-06-11T01:06:10.863Z,88.8
2017-06-11T01:07:17.679Z,88.1
2017-06-11T01:08:25.193Z,90.1
2017-06-11T01:09:32.822Z,89.9
2017-06-11T01:10:40.308Z,89.6
2017-06-11T01:11:47.478Z,90.3
2017-06-11T01:12:54.964Z,90.1
2017-06-11T01:14:02.462Z,90
2017-06-11T01:15:10.095Z,90
2017-06-11T01:16:17.586Z,89.5
2017-06-11T01:17:25.070Z,90.4
2017-06-11T01:18:32.560Z,89.5
2017-06-11T01:19:40.064Z,87.4
2017-06-11T01:20:47.369Z,88.1
2017-06-11T01:21:54.856Z,89.5
2017-06-11T01:23:02.009Z,89.5
2017-06-11T01:24:09.176Z,89.5
2017-06-11T01:25:16.331Z,89
2017-06-11T01:26:23.972Z,89.2
2017-06-11T01:27:31.466Z,86.1
2017-06-11T01:28:38.948Z,88.6
2017-06-11T01:29:46.428Z,86.7
2017-06-11T01:30:53.908Z,90
2017-06-11T01:32:01.539Z,89.9
2017-06-11T01:33:08.691Z,88.6
2017-06-11T01:34:16.176Z,89.4
2017-06-11T01:35:23.656Z,90.2
2017-06-11T01:36:31.146Z,89.4
2017-06-11T01:37:38.447Z,87.9
2017-06-11T01:40:07.688Z,90
2017-06-11T01:41:15.161Z,89.8
2017-06-11T01:42:22.642Z,89.4
2017-06-11T01:43:30.122Z,90.2
2017-06-11T01:44:37.613Z,89.3
2017-06-11T01:45:45.096Z,89.3
2017-06-11T01:46:52.588Z,88.4
2017-06-11T01:48:00.079Z,90.4
2017-06-11T01:49:07.862Z,89.1
2017-06-11T01:50:15.341Z,90.3
2017-06-11T01:51:22.819Z,90
2017-06-11T01:52:30.300Z,89.7
2017-06-11T01:53:37.777Z,90
2017-06-11T01:54:45.410Z,89.2
2017-06-11T01:55:52.892Z,88
2017-06-11T01:57:00.378Z,89.4
2017-06-11T01:58:07.860Z,90.5
2017-06-11T01:59:15.343Z,90.7
2017-06-11T02:00:22.973Z,89.2
2017-06-11T02:01:30.459Z,89.2
2017-06-11T02:02:37.615Z,90.1
2017-06-11T02:03:45.098Z,89
2017-06-11T02:04:52.583Z,90.7
2017-06-11T02:06:00.213Z,90.3
2017-06-11T02:07:07.695Z,90.6
2017-06-11T02:08:15.184Z,90.1
2017-06-11T02:09:22.339Z,89.8
2017-06-11T02:10:29.487Z,90
2017-06-11T02:11:36.791Z,90.1
2017-06-11T02:12:44.269Z,90.2
2017-06-11T02:13:51.755Z,90.6
2017-06-11T02:14:59.238Z,89
2017-06-11T02:16:06.723Z,90.1
2017-06-11T02:17:14.354Z,89.3
2017-06-11T02:18:21.837Z,89.4
2017-06-11T02:19:29.326Z,89
2017-06-11T02:20:36.803Z,90
2017-06-11T02:21:44.295Z,90.4
2017-06-11T02:22:51.926Z,89.6
2017-06-11T02:23:59.407Z,90.4
2017-06-11T02:25:06.883Z,90.8
2017-06-11T02:26:14.364Z,90.8
2017-06-11T02:27:21.851Z,90.4
2017-06-11T02:28:29.734Z,89.7
2017-06-11T02:29:37.214Z,88.6
2017-06-11T02:30:44.697Z,90.4
2017-06-11T02:31:52.184Z,90.3
2017-06-11T02:32:59.667Z,90.9
2017-06-11T02:34:07.471Z,91
2017-06-11T02:35:14.295Z,91
2017-06-11T02:36:21.776Z,90.3
2017-06-11T02:37:29.260Z,90.9
2017-06-11T02:38:36.414Z,91.7
2017-06-11T02:39:44.195Z,91.1
2017-06-11T02:40:51.343Z,91.5
2017-06-11T02:41:58.834Z,91.6
2017-06-11T02:43:06.323Z,91
2017-06-11T02:44:13.807Z,90.8
2017-06-11T02:45:21.826Z,91
2017-06-11T02:46:29.310Z,90.5
2017-06-11T02:47:36.791Z,91.3
2017-06-11T02:48:44.274Z,91.3
2017-06-11T02:49:51.768Z,90.8
2017-06-11T02:50:59.556Z,90
2017-06-11T02:52:06.725Z,90.7
2017-06-11T02:53:14.207Z,91
2017-06-11T02:54:21.361Z,91
2017-06-11T02:55:28.841Z,91.2
2017-06-11T02:56:36.624Z,90.6
2017-06-11T02:57:44.098Z,91.4
2017-06-11T02:58:51.587Z,90.6
2017-06-11T02:59:59.070Z,91.2
2017-06-11T03:01:06.556Z,90.5
2017-06-11T03:02:14.008Z,91.3
2017-06-11T03:03:21.495Z,91
2017-06-11T03:04:28.974Z,90.9
2017-06-11T03:05:36.459Z,91.1
2017-06-11T03:06:43.947Z,90.9
2017-06-11T03:07:51.396Z,91.7
2017-06-11T03:08:58.881Z,90.7
2017-06-11T03:10:06.362Z,90.7
2017-06-11T03:11:13.515Z,88.9
2017-06-11T03:12:20.995Z,90.8
2017-06-11T03:13:28.785Z,90.9
2017-06-11T03:14:36.272Z,91
2017-06-11T03:15:43.421Z,91.2
2017-06-11T03:16:50.925Z,90.8
2017-06-11T03:17:58.400Z,90.6
2017-06-11T03:19:06.185Z,89.9
2017-06-11T03:20:13.332Z,90.2
2017-06-11T03:21:20.806Z,90.4
2017-06-11T03:22:28.287Z,90.6
2017-06-11T03:23:35.774Z,90.6
2017-06-11T03:24:43.406Z,90.6
2017-06-11T03:25:50.887Z,90.6
2017-06-11T03:26:58.372Z,90.4
2017-06-11T03:28:05.524Z,91.3
2017-06-11T03:29:13.003Z,90.9
2017-06-11T03:30:20.634Z,91
2017-06-11T03:31:28.148Z,90.8
2017-06-11T03:32:35.308Z,90.3
2017-06-11T03:33:42.790Z,90
2017-06-11T03:34:50.274Z,90.5
2017-06-11T03:35:57.935Z,91.1
2017-06-11T03:37:05.409Z,91.1
2017-06-11T03:38:12.889Z,90.3
2017-06-11T03:39:20.369Z,90.5
2017-06-11T03:40:27.839Z,91.4
2017-06-11T03:41:35.474Z,91.5
2017-06-11T03:42:42.957Z,90.3
2017-06-11T03:43:50.668Z,91.5
2017-06-11T03:44:57.831Z,91.3
2017-06-11T03:46:05.318Z,90
2017-06-11T03:47:12.953Z,90.3
2017-06-11T03:48:20.445Z,90.2
2017-06-11T03:49:27.923Z,90.8
2017-06-11T03:50:35.409Z,91.8
2017-06-11T03:51:42.892Z,91.8
2017-06-11T03:52:50.199Z,91.8
2017-06-11T03:53:57.683Z,91.5
2017-06-11T03:55:05.184Z,91.6
2017-06-11T03:56:12.663Z,91.7
2017-06-11T03:57:20.143Z,91.9
2017-06-11T03:58:27.774Z,91.3
2017-06-11T03:59:35.257Z,90.8
2017-06-11T04:00:42.745Z,91.7
2017-06-11T04:01:50.233Z,91.2
2017-06-11T04:02:57.716Z,92
2017-06-11T04:04:05.351Z,91.4
2017-06-11T04:05:12.833Z,90.9
2017-06-11T04:07:42.379Z,91.6
2017-06-11T04:08:49.860Z,90.8
2017-06-11T04:09:57.490Z,91.2
2017-06-11T04:11:04.977Z,91.1
2017-06-11T04:12:12.452Z,91.3
2017-06-11T04:13:19.934Z,91.1
2017-06-11T04:14:27.416Z,90.4
2017-06-11T04:15:35.051Z,90.7
2017-06-11T04:16:42.199Z,91.5
2017-06-11T04:17:49.681Z,91
2017-06-11T04:18:57.192Z,92.3
2017-06-11T04:20:04.671Z,92.4
2017-06-11T04:21:12.305Z,92.6
2017-06-11T04:22:19.786Z,92.5
2017-06-11T04:23:27.272Z,92.7
2017-06-11T04:24:34.747Z,92.7
2017-06-11T04:25:41.576Z,92.4
2017-06-11T04:26:49.210Z,92.4
2017-06-11T04:27:56.689Z,90.9
2017-06-11T04:29:04.171Z,92.1
2017-06-11T04:30:11.653Z,92.6
2017-06-11T04:31:19.139Z,92.6
2017-06-11T04:32:26.773Z,92.9
2017-06-11T04:33:34.251Z,93.1
2017-06-11T04:34:41.733Z,93.1
2017-06-11T04:35:49.215Z,93.1
2017-06-11T04:36:56.699Z,93.1
2017-06-11T04:38:04.011Z,93.3
2017-06-11T04:39:11.488Z,93.4
2017-06-11T04:40:18.972Z,93.2
2017-06-11T04:41:26.125Z,93.5
2017-06-11T04:42:33.610Z,93.8
2017-06-11T04:43:40.905Z,94
2017-06-11T04:44:48.390Z,93.7
2017-06-11T04:45:55.876Z,94
2017-06-11T04:47:03.357Z,93.9
2017-06-11T04:48:10.838Z,93.8
2017-06-11T04:49:18.468Z,93.9
2017-06-11T04:50:25.960Z,93.3
2017-06-11T04:51:33.464Z,93.4
2017-06-11T04:52:40.948Z,93.1
2017-06-11T04:53:48.431Z,93
2017-06-11T04:54:56.075Z,92.6
2017-06-11T04:56:03.562Z,93
2017-06-11T04:57:11.059Z,93.1
2017-06-11T04:58:18.212Z,93.5
2017-06-11T04:59:25.696Z,93.2
2017-06-11T05:00:33.324Z,93.7
2017-06-11T05:01:40.805Z,93.1
2017-06-11T05:02:48.290Z,92.6
2017-06-11T05:03:55.773Z,92.5
2017-06-11T05:05:03.254Z,93
2017-06-11T05:06:10.885Z,93.1
2017-06-11T05:07:18.038Z,92.9
2017-06-11T05:08:25.524Z,93
2017-06-11T05:09:33.035Z,93.1
2017-06-11T05:10:40.523Z,93.2
2017-06-11T05:11:48.162Z,92.7
2017-06-11T05:12:55.643Z,92.6
2017-06-11T05:14:03.130Z,93
2017-06-11T05:15:10.610Z,93.1
2017-06-11T05:16:18.090Z,93.4
2017-06-11T05:17:25.723Z,93.4
2017-06-11T05:18:33.204Z,93.1
2017-06-11T05:19:40.688Z,92.8
2017-06-11T05:20:48.189Z,92.5
2017-06-11T05:21:55.672Z,92.5
2017-06-11T05:23:02.984Z,92.4
2017-06-11T05:24:10.364Z,92.1
2017-06-11T05:25:17.850Z,92.1
2017-06-11T05:26:25.325Z,91.9
2017-06-11T05:27:32.806Z,91.7
2017-06-11T05:28:40.106Z,91.6
2017-06-11T05:29:47.263Z,91.4
2017-06-11T05:30:54.747Z,91.4
2017-06-11T05:32:02.230Z,91.2
2017-06-11T05:33:09.057Z,91
2017-06-11T05:34:16.382Z,90.8
2017-06-11T05:35:23.865Z,90.8
2017-06-11T05:36:31.343Z,90.4
2017-06-11T05:37:38.824Z,90.4
2017-06-11T05:38:46.313Z,90.2
2017-06-11T05:39:53.945Z,89.6
2017-06-11T05:41:01.421Z,89.8
2017-06-11T05:42:08.906Z,89.1
2017-06-11T05:43:16.415Z,88
2017-06-11T05:44:23.568Z,87.7
2017-06-11T05:45:31.199Z,88.2
2017-06-11T05:46:38.693Z,87
2017-06-11T05:47:46.181Z,88
2017-06-11T05:48:53.662Z,84.9
2017-06-11T05:50:01.147Z,84.2
2017-06-11T05:51:08.788Z,84.4
2017-06-11T05:52:16.269Z,84.2
2017-06-11T05:53:23.757Z,84.6
2017-06-11T05:54:31.248Z,83.6
2017-06-11T05:55:38.732Z,83.7
2017-06-11T05:56:46.513Z,83.8
2017-06-11T05:57:53.998Z,82
2017-06-11T05:59:01.477Z,81.9
2017-06-11T06:00:08.972Z,83.5
2017-06-11T06:01:16.457Z,83.5
2017-06-11T06:02:24.240Z,79.9
2017-06-11T06:03:31.395Z,80.9
2017-06-11T06:04:38.543Z,81
2017-06-11T06:05:46.037Z,80.2
2017-06-11T06:06:53.225Z,82.7
2017-06-11T06:08:01.007Z,79
2017-06-11T06:09:08.500Z,78.4
2017-06-11T06:10:15.643Z,80.6
2017-06-11T06:11:23.134Z,77.9
2017-06-11T06:12:30.283Z,78.1
2017-06-11T06:13:37.443Z,79.3
2017-06-11T06:14:44.939Z,76.4
2017-06-11T06:15:52.423Z,77
2017-06-11T06:16:59.909Z,78
2017-06-11T06:18:07.392Z,76.7
2017-06-11T06:19:15.299Z,76.2
2017-06-11T06:20:22.786Z,76.6
2017-06-11T06:21:30.341Z,76.2
2017-06-11T06:22:37.835Z,76.9
2017-06-11T06:23:45.325Z,76
2017-06-11T06:24:53.112Z,77.7
2017-06-11T06:26:00.614Z,75.4
2017-06-11T06:27:08.111Z,75.4
2017-06-11T06:28:15.273Z,75.3
2017-06-11T06:29:22.761Z,77.7
2017-06-11T06:30:30.547Z,74.7
2017-06-11T06:31:38.036Z,72.6
2017-06-11T06:32:45.524Z,76.6
2017-06-11T06:33:53.009Z,73
2017-06-11T06:35:00.507Z,74.6
2017-06-11T06:36:08.294Z,76.9
2017-06-11T06:37:15.791Z,72.6
2017-06-11T06:38:23.278Z,72
2017-06-11T06:39:30.770Z,71.9
2017-06-11T06:40:38.261Z,74.8
2017-06-11T06:41:46.058Z,72.2
2017-06-11T06:42:53.554Z,73.3
2017-06-11T06:44:00.731Z,73.9
2017-06-11T06:45:08.215Z,71.9
2017-06-11T06:46:15.706Z,72.8
2017-06-11T06:47:23.203Z,74.1
2017-06-11T06:48:30.375Z,71.7
2017-06-11T06:49:37.873Z,68.9
2017-06-11T06:50:45.368Z,70.8
2017-06-11T06:51:52.523Z,69.3
2017-06-11T06:52:59.687Z,67.7
2017-06-11T06:54:07.187Z,69.8
2017-06-11T06:55:14.349Z,68.3
2017-06-11T06:56:21.852Z,67.8
2017-06-11T06:57:29.339Z,70.7
2017-06-11T06:58:37.151Z,64.3
2017-06-11T06:59:44.323Z,66.6
2017-06-11T07:00:51.842Z,63.6
2017-06-11T07:01:59.333Z,65.6
2017-06-11T07:03:06.828Z,68.1
2017-06-11T07:04:14.617Z,64
2017-06-11T07:05:22.234Z,63.8
2017-06-11T07:06:29.718Z,63.4
2017-06-11T07:07:37.210Z,66.6
2017-06-11T07:08:44.702Z,64.1
2017-06-11T07:09:52.491Z,64
2017-06-11T07:10:59.657Z,62.4
2017-06-11T07:12:06.815Z,60.3
2017-06-11T07:13:14.309Z,61.2
2017-06-11T07:14:21.464Z,62.2
2017-06-11T07:15:28.920Z,63.7
2017-06-11T07:16:36.414Z,61.3
2017-06-11T07:17:43.908Z,63.8
2017-06-11T07:18:51.071Z,64.5
2017-06-11T07:19:58.561Z,60.1
2017-06-11T07:21:06.348Z,58
2017-06-11T07:22:13.839Z,63.2
2017-06-11T07:23:21.335Z,61.4
2017-06-11T07:24:28.825Z,60.4
2017-06-11T07:25:36.320Z,58.9
2017-06-11T07:26:44.117Z,59.9
2017-06-11T07:27:51.606Z,60.2
2017-06-11T07:28:59.102Z,59.8
2017-06-11T07:30:06.588Z,59.7
2017-06-11T07:31:14.085Z,62.7
2017-06-11T07:32:21.245Z,59.5
2017-06-11T07:33:28.734Z,59.6
2017-06-11T07:34:35.891Z,59.3
2017-06-11T07:35:43.379Z,60.1
2017-06-11T07:36:50.540Z,60.6
2017-06-11T07:37:58.330Z,60
2017-06-11T07:39:05.820Z,56.4
2017-06-11T07:40:13.548Z,55.8
2017-06-11T07:41:21.041Z,57.6
2017-06-11T07:42:28.530Z,54.2
2017-06-11T07:43:36.318Z,57.8
2017-06-11T07:44:43.805Z,54.8
2017-06-11T07:45:51.309Z,57.2
2017-06-11T07:46:58.799Z,58.7
2017-06-11T07:48:06.299Z,53.5
2017-06-11T07:49:14.091Z,54.9
2017-06-11T07:50:21.581Z,55.3
2017-06-11T07:51:29.077Z,56.1
2017-06-11T07:52:36.572Z,55.7
2017-06-11T07:53:44.071Z,55.4
2017-06-11T07:54:51.772Z,53.4
2017-06-11T07:55:59.266Z,53.9
2017-06-11T07:57:06.765Z,56.3
2017-06-11T07:58:14.262Z,54.6
2017-06-11T07:59:21.751Z,55.2
2017-06-11T08:00:29.393Z,54.9
2017-06-11T08:01:36.888Z,55.4
2017-06-11T08:04:06.464Z,53
2017-06-11T08:05:13.956Z,53.3
2017-06-11T08:06:21.598Z,56.2
2017-06-11T08:07:28.761Z,54.5
2017-06-11T08:08:36.260Z,53.9
2017-06-11T08:09:43.758Z,49.8
2017-06-11T08:10:50.931Z,51.6
2017-06-11T08:11:58.569Z,53.9
2017-06-11T08:13:06.068Z,52.9
2017-06-11T08:14:13.558Z,52.1
2017-06-11T08:15:20.721Z,55.4
2017-06-11T08:16:28.222Z,54.1
2017-06-11T08:17:35.861Z,52.9
2017-06-11T08:18:43.359Z,53.6
2017-06-11T08:19:50.855Z,52.1
2017-06-11T08:20:58.356Z,57.1
2017-06-11T08:22:05.851Z,53.2
2017-06-11T08:23:13.489Z,52.1
2017-06-11T08:24:20.978Z,52
2017-06-11T08:25:28.471Z,51.8
2017-06-11T08:26:35.962Z,51.8
2017-06-11T08:27:43.458Z,52.3
2017-06-11T08:28:51.001Z,52.1
2017-06-11T08:29:58.490Z,50.9
2017-06-11T08:31:05.988Z,52.5
2017-06-11T08:32:13.477Z,51.5
2017-06-11T08:33:20.976Z,50.6
2017-06-11T08:34:28.615Z,52.3
2017-06-11T08:35:36.106Z,49.2
2017-06-11T08:36:43.603Z,52.3
2017-06-11T08:37:51.094Z,50.2
2017-06-11T08:38:58.263Z,48.6
2017-06-11T08:40:05.904Z,49.6
2017-06-11T08:41:13.069Z,49.4
2017-06-11T08:42:20.562Z,50.4
2017-06-11T08:43:28.060Z,48.5
2017-06-11T08:44:35.553Z,49.2
2017-06-11T08:45:43.192Z,48.2
2017-06-11T08:46:50.681Z,52.2
2017-06-11T08:47:58.177Z,50.2
2017-06-11T08:49:05.668Z,49.1
2017-06-11T08:50:13.160Z,51.9
2017-06-11T08:51:20.809Z,50.7
2017-06-11T08:52:28.302Z,48.7
2017-06-11T08:53:35.462Z,48.2
2017-06-11T08:54:42.967Z,49.6
2017-06-11T08:55:50.455Z,49.9
2017-06-11T08:56:58.105Z,48
2017-06-11T08:58:05.591Z,49
2017-06-11T08:59:13.086Z,48.3
2017-06-11T09:00:20.257Z,48.6
2017-06-11T09:01:27.745Z,48.8
2017-06-11T09:02:35.535Z,47.6
2017-06-11T09:03:43.032Z,48.5
2017-06-11T09:04:50.534Z,50.3
2017-06-11T09:05:58.032Z,48.9
2017-06-11T09:07:05.520Z,50.8
2017-06-11T09:08:13.165Z,50.7
2017-06-11T09:09:20.661Z,48.6
2017-06-11T09:10:28.154Z,47
2017-06-11T09:11:35.651Z,47.8
2017-06-11T09:12:43.148Z,51.9
2017-06-11T09:13:50.791Z,45.3
2017-06-11T09:14:58.285Z,47
2017-06-11T09:16:05.774Z,47.3
2017-06-11T09:17:12.957Z,47.8
2017-06-11T09:18:20.458Z,48.8
2017-06-11T09:19:28.103Z,47.6
2017-06-11T09:20:35.603Z,48.5
2017-06-11T09:21:43.095Z,49.8
2017-06-11T09:22:50.600Z,47.2
2017-06-11T09:23:58.099Z,44.7
2017-06-11T09:25:05.739Z,47
2017-06-11T09:26:13.231Z,46.5
2017-06-11T09:27:20.724Z,44
2017-06-11T09:28:28.221Z,43.6
2017-06-11T09:29:35.727Z,43.4
2017-06-11T09:30:43.219Z,46.5
2017-06-11T09:31:50.717Z,45.9
2017-06-11T09:32:58.211Z,46.4
2017-06-11T09:34:05.702Z,44.9
2017-06-11T09:35:13.197Z,44
2017-06-11T09:36:20.993Z,44.9
2017-06-11T09:37:28.482Z,49.8
2017-06-11T09:38:35.981Z,46.5
2017-06-11T09:39:43.477Z,47.6
2017-06-11T09:40:50.972Z,43.8
2017-06-11T09:41:58.627Z,45.8
2017-06-11T09:43:06.122Z,44.8
2017-06-11T09:44:13.612Z,45.3
2017-06-11T09:45:21.097Z,46.2
2017-06-11T09:46:28.590Z,47.2
2017-06-11T09:47:36.234Z,43.4
2017-06-11T09:48:43.723Z,43.2
2017-06-11T09:49:51.222Z,46.3
2017-06-11T09:50:58.731Z,49.4
2017-06-11T09:52:06.231Z,45.4
2017-06-11T09:53:13.879Z,45.6
2017-06-11T09:54:21.041Z,46.3
2017-06-11T09:55:28.538Z,49.6
2017-06-11T09:56:35.701Z,45.3
2017-06-11T09:57:43.195Z,46.3
2017-06-11T09:58:50.992Z,44.5
2017-06-11T09:59:58.487Z,48.8
2017-06-11T10:01:05.981Z,45.4
2017-06-11T10:02:13.480Z,45.8
2017-06-11T10:03:20.975Z,41.6
2017-06-11T10:04:28.772Z,42.2
2017-06-11T10:05:36.262Z,41.2
2017-06-11T10:06:43.763Z,43.9
2017-06-11T10:07:51.271Z,44.8
2017-06-11T10:08:58.438Z,44.2
2017-06-11T10:10:05.611Z,43.1
2017-06-11T10:11:13.109Z,42.1
2017-06-11T10:12:20.602Z,45.1
2017-06-11T10:13:28.097Z,44.7
2017-06-11T10:14:35.601Z,43.5
2017-06-11T10:15:43.401Z,47.8
2017-06-11T10:16:50.896Z,45.4
2017-06-11T10:17:58.391Z,46.3
2017-06-11T10:19:05.889Z,44.2
2017-06-11T10:20:13.387Z,46.9
2017-06-11T10:21:21.183Z,43.4
2017-06-11T10:22:28.675Z,42.7
2017-06-11T10:23:36.170Z,43.8
2017-06-11T10:24:43.665Z,45.7
2017-06-11T10:25:51.162Z,43.8
2017-06-11T10:27:00.164Z,43.8
2017-06-11T10:28:07.661Z,45.4
2017-06-11T10:29:15.156Z,44
2017-06-11T10:30:22.326Z,42.5
2017-06-11T10:31:29.485Z,42
2017-06-11T10:32:36.978Z,42.8
2017-06-11T10:33:44.153Z,41.2
2017-06-11T10:34:51.643Z,43.6
2017-06-11T10:35:59.146Z,42.8
2017-06-11T10:37:06.635Z,46.8
2017-06-11T10:38:14.048Z,44.9
2017-06-11T10:39:21.208Z,42.7
2017-06-11T10:40:28.706Z,44.5
2017-06-11T10:41:36.446Z,44.2
2017-06-11T10:42:43.934Z,42.1
2017-06-11T10:43:51.684Z,42.8
2017-06-11T10:44:59.179Z,40.9
2017-06-11T10:46:06.674Z,41.7
2017-06-11T10:47:14.176Z,42.9
2017-06-11T10:48:21.674Z,42.6
2017-06-11T10:49:29.176Z,42.5
2017-06-11T10:50:36.670Z,43.5
2017-06-11T10:51:44.187Z,44.1
2017-06-11T10:52:51.679Z,43.5
2017-06-11T10:53:59.174Z,44.3
2017-06-11T10:55:06.920Z,41.9
2017-06-11T10:56:14.418Z,43.5
2017-06-11T10:57:21.914Z,42.8
2017-06-11T10:58:29.412Z,45.5
2017-06-11T10:59:36.898Z,41.2
2017-06-11T11:00:44.316Z,43.6
2017-06-11T11:01:51.816Z,41
2017-06-11T11:02:59.318Z,44.7
2017-06-11T11:04:06.817Z,40.7
2017-06-11T11:05:14.311Z,40.9
2017-06-11T11:06:21.957Z,46.2
2017-06-11T11:07:29.455Z,42.9
2017-06-11T11:08:36.952Z,44
2017-06-11T11:09:44.451Z,44.3
2017-06-11T11:10:51.945Z,42.1
2017-06-11T11:11:59.441Z,41.7
2017-06-11T11:13:06.942Z,41.3
2017-06-11T11:14:14.446Z,41.6
2017-06-11T11:15:21.951Z,43.9
2017-06-11T11:16:29.449Z,42.9
2017-06-11T11:17:38.452Z,42
2017-06-11T11:18:45.943Z,42.8
2017-06-11T11:19:53.446Z,41.1
2017-06-11T11:21:00.934Z,42.1
2017-06-11T11:22:08.433Z,41.1
2017-06-11T11:23:15.899Z,41.5
2017-06-11T11:24:22.738Z,40.9
2017-06-11T11:25:30.233Z,41
2017-06-11T11:26:37.734Z,41.7
2017-06-11T11:27:45.231Z,42.5
2017-06-11T11:28:53.030Z,41.5
2017-06-11T11:30:00.530Z,40.6
2017-06-11T11:31:08.027Z,43.5
2017-06-11T11:32:15.522Z,40.5
2017-06-11T11:33:23.016Z,42.4
2017-06-11T11:34:30.812Z,42.1
2017-06-11T11:35:38.307Z,37.9
2017-06-11T11:36:45.803Z,41
2017-06-11T11:37:53.303Z,42.7
2017-06-11T11:39:00.801Z,37.8
2017-06-11T11:40:08.597Z,40.5
2017-06-11T11:41:16.096Z,40.4
2017-06-11T11:42:23.589Z,40
2017-06-11T11:43:31.086Z,40.5
2017-06-11T11:44:38.582Z,41.4
2017-06-11T11:45:46.391Z,40.6
2017-06-11T11:46:53.566Z,42.2
2017-06-11T11:48:01.073Z,40.7
2017-06-11T11:49:08.573Z,40
2017-06-11T11:50:15.746Z,41.3
2017-06-11T11:51:22.917Z,41
2017-06-11T11:52:30.416Z,41.4
2017-06-11T11:53:37.581Z,43.2
2017-06-11T11:54:45.072Z,40
2017-06-11T11:55:52.575Z,42.4
2017-06-11T11:57:00.370Z,39.9
2017-06-11T11:58:07.871Z,42.1
2017-06-11T11:59:15.369Z,40
2017-06-11T12:00:22.868Z,41.8
2017-06-11T12:01:30.361Z,41
2017-06-11T12:02:37.822Z,39.8
2017-06-11T12:03:45.320Z,40.9
2017-06-11T12:04:52.500Z,40.9
2017-06-11T12:05:59.988Z,42.1
2017-06-11T12:07:07.711Z,41.4
2017-06-11T12:08:15.180Z,43.3
2017-06-11T12:09:22.677Z,42.1
2017-06-11T12:10:30.165Z,39.6
2017-06-11T12:11:37.663Z,43.8
2017-06-11T12:12:45.160Z,43.1
2017-06-11T12:13:52.659Z,40.1
2017-06-11T12:15:00.156Z,41.5
2017-06-11T12:16:07.656Z,38.5
2017-06-11T12:17:15.162Z,40.3
2017-06-11T12:18:22.979Z,43.4
2017-06-11T12:19:30.473Z,41.5
2017-06-11T12:20:37.968Z,41.4
2017-06-11T12:21:45.464Z,41.8
2017-06-11T12:22:52.961Z,41
2017-06-11T12:24:00.756Z,42.5
2017-06-11T12:25:07.924Z,41.5
2017-06-11T12:26:15.319Z,42.3
2017-06-11T12:27:22.819Z,42.8
2017-06-11T12:28:30.312Z,40.1
2017-06-11T12:29:38.111Z,40.3
2017-06-11T12:30:45.612Z,42.1
2017-06-11T12:31:52.776Z,41
2017-06-11T12:32:59.953Z,42.1
2017-06-11T12:34:07.441Z,40.7
2017-06-11T12:35:15.253Z,42.4
2017-06-11T12:36:22.419Z,41.1
2017-06-11T12:37:29.924Z,41.4
2017-06-11T12:38:37.418Z,41.7
2017-06-11T12:39:44.919Z,40.7
2017-06-11T12:40:52.417Z,42.1
2017-06-11T12:41:59.919Z,39.4
2017-06-11T12:43:07.417Z,40
2017-06-11T12:44:14.916Z,39.6
2017-06-11T12:45:22.417Z,41.8
2017-06-11T12:46:30.217Z,39.4
2017-06-11T12:47:37.719Z,39.8
2017-06-11T12:48:45.222Z,40.9
2017-06-11T12:49:52.724Z,39.2
2017-06-11T12:51:00.221Z,41.6
2017-06-11T12:52:08.018Z,38.9
2017-06-11T12:53:15.515Z,38.8
2017-06-11T12:54:23.011Z,41.4
2017-06-11T12:55:30.515Z,40
2017-06-11T12:56:38.018Z,39.8
2017-06-11T12:57:45.515Z,41.4
2017-06-11T12:58:53.039Z,41.1
2017-06-11T13:00:00.531Z,40.2
2017-06-11T13:01:08.031Z,40
2017-06-11T13:02:15.536Z,41.8
2017-06-11T13:03:23.568Z,40.3
2017-06-11T13:04:30.734Z,42.3
2017-06-11T13:05:37.901Z,41.6
2017-06-11T13:06:45.390Z,40.1
2017-06-11T13:07:52.893Z,40.5
2017-06-11T13:09:00.689Z,40.1
2017-06-11T13:10:08.192Z,39.8
2017-06-11T13:11:15.685Z,40
2017-06-11T13:12:22.867Z,40
2017-06-11T13:13:30.373Z,40.2
2017-06-11T13:14:38.180Z,40
2017-06-11T13:15:45.021Z,39.1
2017-06-11T13:16:52.531Z,40.3
2017-06-11T13:18:00.031Z,39.4
2017-06-11T13:19:07.534Z,38.5
2017-06-11T13:20:15.035Z,38.5
2017-06-11T13:21:22.534Z,38.2
2017-06-11T13:22:30.028Z,39.1
2017-06-11T13:23:37.527Z,38.1
2017-06-11T13:24:45.024Z,39.1
2017-06-11T13:25:52.820Z,39.5
2017-06-11T13:27:00.314Z,40.7
2017-06-11T13:28:07.812Z,37.9
2017-06-11T13:29:14.987Z,40
2017-06-11T13:30:22.480Z,39.3
2017-06-11T13:31:30.278Z,38.5
2017-06-11T13:32:37.780Z,37.8
2017-06-11T13:33:45.277Z,38.6
2017-06-11T13:34:52.771Z,39.5
2017-06-11T13:36:00.264Z,37.3
2017-06-11T13:37:07.627Z,38.9
2017-06-11T13:38:15.142Z,36
2017-06-11T13:39:22.641Z,38
2017-06-11T13:40:30.136Z,37.8
2017-06-11T13:41:37.631Z,39.3
2017-06-11T13:42:45.279Z,38.7
2017-06-11T13:43:52.795Z,39.6
2017-06-11T13:45:00.293Z,39.4
2017-06-11T13:46:07.788Z,39.2
2017-06-11T13:47:15.291Z,39.7
2017-06-11T13:48:22.938Z,38.1
2017-06-11T13:49:30.455Z,39.4
2017-06-11T13:50:37.946Z,39.6
2017-06-11T13:51:45.451Z,36.8
2017-06-11T13:52:52.944Z,36.8
2017-06-11T13:54:00.593Z,37.1
2017-06-11T13:55:08.095Z,38
2017-06-11T13:56:15.597Z,39.6
2017-06-11T13:57:23.093Z,40
2017-06-11T13:58:30.586Z,39.2
2017-06-11T13:59:38.245Z,40.3
2017-06-11T14:00:45.743Z,39.9
2017-06-11T14:01:53.243Z,40.8
2017-06-11T14:03:00.745Z,37.9
2017-06-11T14:04:07.912Z,37.4
2017-06-11T14:05:15.703Z,38.1
2017-06-11T14:06:22.541Z,37.7
2017-06-11T14:07:30.036Z,39.7
2017-06-11T14:08:37.540Z,39
2017-06-11T14:09:45.036Z,39.3
2017-06-11T14:10:52.838Z,36.1
2017-06-11T14:12:00.340Z,36.5
2017-06-11T14:13:07.839Z,36.5
2017-06-11T14:14:15.339Z,38.8
2017-06-11T14:15:22.508Z,39.2
2017-06-11T14:16:30.308Z,37
2017-06-11T14:17:37.805Z,37.8
2017-06-11T14:18:44.973Z,36.9
2017-06-11T14:19:52.474Z,39.6
2017-06-11T14:20:59.975Z,38.9
2017-06-11T14:22:07.469Z,38.9
2017-06-11T14:23:14.968Z,37.8
2017-06-11T14:24:22.465Z,36.7
2017-06-11T14:25:29.963Z,38.8
2017-06-11T14:26:37.764Z,38
2017-06-11T14:27:44.936Z,37.7
2017-06-11T14:28:52.433Z,40.7
2017-06-11T14:29:59.604Z,39.3
2017-06-11T14:31:07.103Z,36.5
2017-06-11T14:32:14.904Z,35.9
2017-06-11T14:33:22.405Z,37.3
2017-06-11T14:34:29.901Z,36.8
2017-06-11T14:35:37.423Z,36.9
2017-06-11T14:36:44.927Z,36.3
2017-06-11T14:37:52.724Z,40
2017-06-11T14:39:00.219Z,39
2017-06-11T14:40:07.717Z,36.7
2017-06-11T14:41:15.214Z,40.6
2017-06-11T14:42:22.713Z,37
2017-06-11T14:43:30.506Z,37
2017-06-11T14:44:38.004Z,37.2
2017-06-11T14:45:45.505Z,37.9
2017-06-11T14:46:53.011Z,36.5
2017-06-11T14:48:00.512Z,39.4
2017-06-11T14:49:07.681Z,38
2017-06-11T14:50:15.175Z,36.8
2017-06-11T14:51:22.341Z,39.4
2017-06-11T14:52:29.513Z,39.6
2017-06-11T14:53:37.020Z,42
2017-06-11T14:54:44.817Z,37.9
2017-06-11T14:55:52.318Z,39
2017-06-11T14:56:59.487Z,37
2017-06-11T14:58:07.183Z,38.1
2017-06-11T14:59:14.682Z,39.5
2017-06-11T15:00:22.482Z,39.7
2017-06-11T15:01:29.984Z,39.2
2017-06-11T15:02:37.482Z,40.5
2017-06-11T15:03:44.990Z,38.9
2017-06-11T15:04:52.486Z,39.3
2017-06-11T15:05:59.662Z,39
2017-06-11T15:07:07.159Z,38.4
2017-06-11T15:08:14.657Z,38.1
2017-06-11T15:09:22.157Z,38
2017-06-11T15:10:29.653Z,39.8